Hovedside
METAR-TAF:

METAR-TAF

Lufthavner :

Oslo lufthavn (Gardermoen)

Oslo, Norge

breddegrad: 60-12N, lengdegrad: 011-05E, høyde over havet: 208 m

Gjeldene værobservasjon

Denne rapporten ble laget for 18 minutter siden, klokken 16:20 UTC
Vind 4 kt fra Sørøst, skiftende mellom Øst og Sør
Temperatur 3°C
Luftfuktighet 93%
Trykk 994 hPa
Sikt: 8000 m
Overskyet i en høyde av 500 ft
lett regn, duskregn

METAR: ENGM 271620Z 13004KT 090V170 8000 -RADZ OVC005 03/02 Q0994 TEMPO OVC004

Tid: 17:38 (16:38 UTC)

Varsel

Varsel gyldig fra 27. klokken 12 UTC til 28. klokken 12 UTC
Vind 10 kt fra Sør
Sikt 10 km eller mer
Brutte skyer i en høyde av 800 ft
Midlertidig
fra 27. klokken 12 UTC til 27. klokken 24 UTC
Sikt: 2000 m
Overskyet i en høyde av 300 ft
duskregn, regn, dis
Midlertidig
fra 28. klokken 00 UTC til 28. klokken 09 UTC
Sikt: 1400 m
Overskyet i en høyde av 200 ft
dis

TAF: ENGM 2712/2812 17010KT 9999 BKN008 TEMPO 2712/2724 2000 DZRA BR OVC003 TEMPO 2800/2809 1400 BR OVC002

Værobservasjoner og værvarsel for over 4000 flyplasser (METAR- og TAF-rapporter).

Tilgjengelige stasjoner er representert av de røde og gule prikkene på kartet.

Hold musepekeren over prikken for å se navnet på stasjonen.

Klikk så for å se værobservasjoner og -varsler.

For å forandre kartet kan du klikke på den grønne knappen med svart kryss for å zoome inn, på den grønne knappen med strek for å zoome ut, eller på de grønne pilene for å se tilstøtende kart.


METAR-TAF: